Terminal Aerodrome Forecast
Issued by NWS

Home | Current Version | Previous Version | Text Only | Print | Product List | Glossary On
Versions: 1 2 3 4 5 6 7 8 9 10 11 12 13 14 15 16 17 18 19 20 21 22 23
585
FTUS43 KGRR 270117 AAA
TAFJXN
TAF AMD
KJXN 270117Z 2701/2724 16004KT 4SM BR OVC004
     FM270900 24006KT 3SM BR OVC003
     FM271400 24008KT 5SM BR OVC011
     FM271800 24006KT P6SM OVC035
     FM272300 26004KT P6SM BKN045=

USA.gov is the U.S. government's official web portal to all federal, state and local government web resources and services.